Airport View

Enter AWOS ICAO identifier for current METAR.

ex. KFNL

KALM 251550Z AUTO 16011KT 10SM CLR 22/03 A2998 RMK AO2

25 Oct 2020 15:52

Frequency: 127.825

Phone: 575-439-4112

Other Area AWOS: KHMN - KSRR - KLRU - KBIF

TAF AMD KHMN 232345Z 2323/2423 16012G18KT 9999 SKC QNH3008INS TEMPO 2323/2403 16015G25KT BECMG 2408/2409 16010G15KT 9999 FEW250 QNH3013INS TX22/2400Z TN10/2413Z LAST NO AMDS AFT 2400 NEXT 2709